Share

Gillette, WY

RAWS ECHETA WY US (MECEW4) Elev 4396 ft | 44.47 °N, 105.84 °W | Change Station

Current weather conditions updated 44 minutes ago

Clear
Clear
53 °F
Feels Like 53 °F
N
3
Wind Variable Wind from West
Gusts 10.0 mph
Sunrise 6:11 AM
Sunset 7:52 PM
Moon Waning Gibbous

Today is forecast to be Cooler than yesterday.

Pressure 30.01 in
Visibility 10.0 miles
Clouds Clear
Dew Point 22 °F
Humidity 29%
Rainfall 0.00 in
Snow Depth Not available.
UV 5 out of 16
Pollen 9.30 out of 12
Air Quality Not available.
Flu Activity Sporadic
METAR KBYG 191553Z AUTO VRB05KT 10SM CLR 09/M10 A3004 RMK AO2 SLP162 T00941100

More Conditions Fewer Conditions

Pressure 30.01 in
Visibility 10.0 miles
Clouds Clear
Dew Point 22 °F
Humidity 29%
Rainfall 0.00 in
Snow Depth Not available.
UV 5 out of 16
Pollen 9.30 out of 12
Air Quality Not available.
Flu Activity Sporadic
METAR KBYG 191553Z AUTO VRB05KT 10SM CLR 09/M10 A3004 RMK AO2 SLP162 T00941100

More Conditions Fewer Conditions

10-Day Weather Forecast

Almanac

Astronomy

Apr. 19, 2014 Rise Set
Actual Time 6:11 AM MDT 7:52 PM MDT
Civil Twilight 5:41 AM MDT 8:23 PM MDT
Nautical Twilight 5:03 AM MDT 9:01 PM MDT
Astronomical Twilight 4:23 AM MDT 9:41 PM MDT
Moon No Moon Rise 9:27 AM MDT
Length of Visible Light 14h 42m
Length of Day
13h 40m
Tomorrow will be 2m 54s longer.
Waning Gibbous, 78% of the Moon is Illuminated
Today
Waning Gibbous
Apr 22
Last Quarter
Apr 29
New
May 6
First Quarter
May 14
Full

Today's Extremes

State Highs State Lows

Community

  • A Glorious Morning
    A Glorious Morning
  • Tender Rays Of Hope
    Tender Rays Of Hope
  • Bleeding Hearts
    Bleeding Hearts
  • Sunset Silhouettes
    Sunset Silhouettes
  • FL sunset Perico Isle
    FL sunset Perico Isle

WunderPhotos

Upload Photos

1,702,796 photos uploaded!

WunderBlogs® & News

Nearby

Snow Depth

Station Depth Elevation
Casper Mountain 52 in 7850 ft
Reno Hill 58 in 8500 ft
Laprele Creek 26 in 8375 ft
Windy Peak 26 in 7900 ft
Townsend Creek 25 in 8700 ft

Coastal Water Temperatures

Place Temperature
No Stations Reporting

Earthquake Activity

City Distance Mag. Time & Date
No recent earthquake activity has been reported nearby.
Minimum magnitude displayed is 2.5.

Nearby Weather Stations

Station Location Temp. Dew Point Humidity Wind Precip. Elev Updated Type
RAWS ECHETA WY, Gillette, WY 53 °F 22 °F 29% West  at  3 mph 0.00 in / hr 4396 ft 9:51 AM MDT MADIS
(North Gillette), Gillette, WY 54.5 °F 24 °F 31% NNW  at  2.0 mph 0.00 in / hr 4610 ft 10:35 AM MDT Rapid Fire

Show More Stations Show Fewer Stations

What do you think?

We're not finished. Please let us know what you like, what you don't like, and what you are still missing.